Terminal Aerodrome Forecast
Issued by NWS Jacksonville, FL

Home | Current Version | Previous Version | Text Only | Print | Product List | Glossary On
Versions: 1 2 3 4 5 6 7 8 9 10 11 12 13 14 15 16 17 18 19 20 21 22
000
FTUS42 KJAX 272320
TAFSSI
TAF
KSSI 272320Z 2800/2824 12010KT P6SM SCT015
     FM280200 08004KT P6SM SCT030
     FM281400 05006KT P6SM VCSH SCT030
     FM281600 12009KT P6SM VCSH BKN040=

USA.gov is the U.S. government's official web portal to all federal, state and local government web resources and services.